createdAt,value
2019-03-30T00:01:52.931Z,5.50
2019-03-30T00:04:21.559Z,5.50
2019-03-30T00:06:50.149Z,5.40
2019-03-30T00:09:18.782Z,5.40
2019-03-30T00:11:47.374Z,5.30
2019-03-30T00:14:15.924Z,5.30
2019-03-30T00:16:44.579Z,5.30
2019-03-30T00:19:13.597Z,5.20
2019-03-30T00:21:42.214Z,5.20
2019-03-30T00:24:10.881Z,5.20
2019-03-30T00:26:39.550Z,5.20
2019-03-30T00:29:08.289Z,5.20
2019-03-30T00:31:36.890Z,5.20
2019-03-30T00:34:05.833Z,5.10
2019-03-30T00:36:34.444Z,5.00
2019-03-30T00:39:05.068Z,5.70
2019-03-30T00:41:34.054Z,5.10
2019-03-30T00:44:02.682Z,5.00
2019-03-30T00:46:31.382Z,4.90
2019-03-30T00:49:05.207Z,4.90
2019-03-30T00:51:33.828Z,4.90
2019-03-30T00:54:02.407Z,4.80
2019-03-30T00:56:31.091Z,4.80
2019-03-30T00:59:09.714Z,4.80
2019-03-30T01:01:38.344Z,4.70
2019-03-30T01:04:06.911Z,4.70
2019-03-30T01:06:35.614Z,4.60
2019-03-30T01:09:06.991Z,4.60
2019-03-30T01:11:35.760Z,4.60
2019-03-30T01:14:04.338Z,5.00
2019-03-30T01:16:32.902Z,4.50
2019-03-30T01:19:01.476Z,4.50
2019-03-30T01:21:30.181Z,4.50
2019-03-30T01:23:58.827Z,4.50
2019-03-30T01:26:27.392Z,4.40
2019-03-30T01:28:56.003Z,4.40
2019-03-30T01:31:24.663Z,4.10
2019-03-30T01:33:53.236Z,4.40
2019-03-30T01:36:21.860Z,4.40
2019-03-30T01:38:50.427Z,4.40
2019-03-30T01:41:19.065Z,4.40
2019-03-30T01:43:47.630Z,4.30
2019-03-30T01:46:16.272Z,5.00
2019-03-30T01:48:44.851Z,4.20
2019-03-30T01:51:13.505Z,4.20
2019-03-30T01:53:42.055Z,4.20
2019-03-30T01:56:10.688Z,4.20
2019-03-30T01:58:39.281Z,4.10
2019-03-30T02:01:08.103Z,4.10
2019-03-30T02:03:36.679Z,4.10
2019-03-30T02:06:05.295Z,4.10
2019-03-30T02:08:33.942Z,4.00
2019-03-30T02:11:02.793Z,4.00
2019-03-30T02:13:31.401Z,4.00
2019-03-30T02:16:00.176Z,3.90
2019-03-30T02:18:28.790Z,4.00
2019-03-30T02:21:12.726Z,3.90
2019-03-30T02:23:41.311Z,3.90
2019-03-30T02:26:11.119Z,3.90
2019-03-30T02:28:39.731Z,3.90
2019-03-30T02:31:13.592Z,3.90
2019-03-30T02:33:42.185Z,3.90
2019-03-30T02:36:10.777Z,3.90
2019-03-30T02:38:39.410Z,3.90
2019-03-30T02:41:09.484Z,4.40
2019-03-30T02:43:38.050Z,3.70
2019-03-30T02:46:06.749Z,4.40
2019-03-30T02:48:35.438Z,3.50
2019-03-30T02:51:04.266Z,4.30
2019-03-30T02:53:32.813Z,3.60
2019-03-30T02:56:01.435Z,3.90
2019-03-30T02:58:30.043Z,3.60
2019-03-30T03:00:59.235Z,3.50
2019-03-30T03:03:27.846Z,3.50
2019-03-30T03:05:56.443Z,3.50
2019-03-30T03:08:25.036Z,3.50
2019-03-30T03:11:03.836Z,3.50
2019-03-30T03:13:32.514Z,3.50
2019-03-30T03:16:01.100Z,3.50
2019-03-30T03:18:29.659Z,3.40
2019-03-30T03:21:08.998Z,3.30
2019-03-30T03:23:37.832Z,3.30
2019-03-30T03:26:06.427Z,3.30
2019-03-30T03:28:35.030Z,3.10
2019-03-30T03:31:03.616Z,3.10
2019-03-30T03:33:32.233Z,3.00
2019-03-30T03:36:00.882Z,3.00
2019-03-30T03:38:29.509Z,2.90
2019-03-30T03:40:58.153Z,3.00
2019-03-30T03:43:26.834Z,3.00
2019-03-30T03:45:55.448Z,2.90
2019-03-30T03:48:24.095Z,2.90
2019-03-30T03:50:59.679Z,2.90
2019-03-30T03:53:29.627Z,2.80
2019-03-30T03:56:00.895Z,3.30
2019-03-30T03:58:33.478Z,2.80
2019-03-30T04:01:03.708Z,2.80
2019-03-30T04:03:52.952Z,2.30
2019-03-30T04:06:24.336Z,3.00
2019-03-30T04:08:56.343Z,2.80
2019-03-30T04:11:26.773Z,2.70
2019-03-30T04:13:59.481Z,2.70
2019-03-30T04:16:28.135Z,2.70
2019-03-30T04:18:56.687Z,2.70
2019-03-30T04:21:42.372Z,2.60
2019-03-30T04:23:55.859Z,2.70
2019-03-30T04:26:24.541Z,2.70
2019-03-30T04:28:53.179Z,2.80
2019-03-30T04:31:21.781Z,2.60
2019-03-30T04:33:50.388Z,2.70
2019-03-30T04:36:19.030Z,2.90
2019-03-30T04:38:47.660Z,2.60
2019-03-30T04:41:16.310Z,2.60
2019-03-30T04:43:44.938Z,2.60
2019-03-30T04:46:13.532Z,2.50
2019-03-30T04:48:42.113Z,2.50
2019-03-30T04:51:10.748Z,2.40
2019-03-30T04:53:39.383Z,2.40
2019-03-30T04:56:08.002Z,2.40
2019-03-30T04:58:36.620Z,2.30
2019-03-30T05:01:05.306Z,2.40
2019-03-30T05:03:33.927Z,2.40
2019-03-30T05:06:02.512Z,2.40
2019-03-30T05:08:31.068Z,2.50
2019-03-30T05:11:00.142Z,2.50
2019-03-30T05:13:28.722Z,3.10
2019-03-30T05:15:57.316Z,2.40
2019-03-30T05:18:25.946Z,2.40
2019-03-30T05:20:54.815Z,2.40
2019-03-30T05:23:23.398Z,2.40
2019-03-30T05:25:52.198Z,2.40
2019-03-30T05:28:20.786Z,2.90
2019-03-30T05:30:49.570Z,2.60
2019-03-30T05:33:19.714Z,2.60
2019-03-30T05:35:48.350Z,2.60
2019-03-30T05:38:16.921Z,2.70
2019-03-30T05:40:45.555Z,2.70
2019-03-30T05:43:14.160Z,2.70
2019-03-30T05:45:42.771Z,2.80
2019-03-30T05:48:11.376Z,2.80
2019-03-30T05:50:39.975Z,2.90
2019-03-30T05:53:08.578Z,3.00
2019-03-30T05:55:37.181Z,3.00
2019-03-30T05:58:05.780Z,3.00
2019-03-30T06:00:44.597Z,3.60
2019-03-30T06:03:13.164Z,3.30
2019-03-30T06:05:42.049Z,3.70
2019-03-30T06:08:10.688Z,3.50
2019-03-30T06:10:39.278Z,3.60
2019-03-30T06:13:07.884Z,4.10
2019-03-30T06:15:36.506Z,5.30
2019-03-30T06:18:05.201Z,6.80
2019-03-30T06:20:33.923Z,8.10
2019-03-30T06:23:02.707Z,9.40
2019-03-30T06:25:31.287Z,10.50
2019-03-30T06:27:59.891Z,11.30
2019-03-30T06:30:33.521Z,12.00
2019-03-30T06:33:02.173Z,12.50
2019-03-30T06:35:30.743Z,12.90
2019-03-30T06:37:59.333Z,13.30
2019-03-30T06:40:27.937Z,13.60
2019-03-30T06:42:56.486Z,13.50
2019-03-30T06:45:25.092Z,13.70
2019-03-30T06:47:53.677Z,14.10
2019-03-30T06:50:22.293Z,14.50
2019-03-30T06:52:57.660Z,15.00
2019-03-30T06:55:21.407Z,15.70
2019-03-30T06:57:50.025Z,16.40
2019-03-30T07:00:32.959Z,16.60
2019-03-30T07:03:04.851Z,16.80
2019-03-30T07:05:38.568Z,17.30
2019-03-30T07:08:11.934Z,17.60
2019-03-30T07:10:45.289Z,17.90
2019-03-30T07:13:14.388Z,18.50
2019-03-30T07:15:47.838Z,18.80
2019-03-30T07:18:17.194Z,19.10
2019-03-30T07:20:45.835Z,19.30
2019-03-30T07:23:14.493Z,19.10
2019-03-30T07:25:43.160Z,19.10
2019-03-30T07:28:11.748Z,19.50
2019-03-30T07:30:40.343Z,20.00
2019-03-30T07:33:09.002Z,19.40
2019-03-30T07:35:37.593Z,19.10
2019-03-30T07:38:06.269Z,19.50
2019-03-30T07:40:34.845Z,19.50
2019-03-30T07:43:03.439Z,20.10
2019-03-30T07:45:32.017Z,20.90
2019-03-30T07:48:00.617Z,21.20
2019-03-30T07:50:29.175Z,21.10
2019-03-30T07:52:57.808Z,21.20
2019-03-30T07:55:26.429Z,21.90
2019-03-30T07:57:55.046Z,22.10
2019-03-30T08:00:29.082Z,22.10
2019-03-30T08:02:54.263Z,22.10
2019-03-30T08:05:22.878Z,22.70
2019-03-30T08:07:51.430Z,23.30
2019-03-30T08:10:20.013Z,23.40
2019-03-30T08:12:48.627Z,23.30
2019-03-30T08:15:17.324Z,23.40
2019-03-30T08:17:46.268Z,23.70
2019-03-30T08:20:15.575Z,23.00
2019-03-30T08:22:44.267Z,24.00
2019-03-30T08:25:13.516Z,24.10
2019-03-30T08:27:42.076Z,24.70
2019-03-30T08:30:10.985Z,24.40
2019-03-30T08:32:39.571Z,24.80
2019-03-30T08:35:08.866Z,24.90
2019-03-30T08:37:37.457Z,25.10
2019-03-30T08:40:06.649Z,25.00
2019-03-30T08:42:35.292Z,25.50
2019-03-30T08:45:05.390Z,26.00
2019-03-30T08:47:33.975Z,26.10
2019-03-30T08:50:03.257Z,25.70
2019-03-30T08:52:31.902Z,26.30
2019-03-30T08:55:00.476Z,26.60
2019-03-30T08:57:29.046Z,27.20
2019-03-30T08:59:57.667Z,27.10
2019-03-30T09:02:26.188Z,27.30
2019-03-30T09:04:54.812Z,27.80
2019-03-30T09:07:23.375Z,27.80
2019-03-30T09:09:52.007Z,28.10
2019-03-30T09:12:20.678Z,28.20
2019-03-30T09:14:50.506Z,28.10
2019-03-30T09:17:19.175Z,27.60
2019-03-30T09:19:47.860Z,27.40
2019-03-30T09:22:16.461Z,27.30
2019-03-30T09:24:45.084Z,26.70
2019-03-30T09:27:16.274Z,26.80
2019-03-30T09:29:55.097Z,27.00
2019-03-30T09:32:23.761Z,26.10
2019-03-30T09:34:52.379Z,26.10
2019-03-30T09:37:20.958Z,26.90
2019-03-30T09:39:49.763Z,26.00
2019-03-30T09:42:18.484Z,27.40
2019-03-30T09:44:48.975Z,28.50
2019-03-30T09:47:17.910Z,29.00
2019-03-30T09:49:47.538Z,28.30
2019-03-30T09:52:17.079Z,27.90
2019-03-30T09:54:49.382Z,27.30
2019-03-30T09:57:22.024Z,26.50
2019-03-30T10:00:02.402Z,25.20
2019-03-30T10:02:31.620Z,23.90
2019-03-30T10:05:00.953Z,23.20
2019-03-30T10:07:29.690Z,22.30
2019-03-30T10:09:58.388Z,21.60
2019-03-30T10:12:27.025Z,20.70
2019-03-30T10:14:55.700Z,20.20
2019-03-30T10:17:24.328Z,20.10
2019-03-30T10:20:03.717Z,20.00
2019-03-30T10:22:23.937Z,19.70
2019-03-30T10:24:52.625Z,19.30
2019-03-30T10:27:21.528Z,19.70
2019-03-30T10:29:50.328Z,21.30
2019-03-30T10:32:18.972Z,22.70
2019-03-30T10:34:47.880Z,24.00
2019-03-30T10:37:16.553Z,25.50
2019-03-30T10:39:45.473Z,26.70
2019-03-30T10:42:14.165Z,27.20
2019-03-30T10:44:43.098Z,27.70
2019-03-30T10:47:12.123Z,28.10
2019-03-30T10:49:43.409Z,27.50
2019-03-30T10:52:12.111Z,28.00
2019-03-30T10:54:52.123Z,28.60
2019-03-30T10:57:12.097Z,29.20
2019-03-30T10:59:41.002Z,30.10
2019-03-30T11:02:09.659Z,30.70
2019-03-30T11:04:39.605Z,30.10
2019-03-30T11:07:08.289Z,31.00
2019-03-30T11:10:07.624Z,31.60
2019-03-30T11:12:36.419Z,31.20
2019-03-30T11:15:06.015Z,31.50
2019-03-30T11:17:34.716Z,32.10
2019-03-30T11:20:08.604Z,32.60
2019-03-30T11:22:37.213Z,32.30
2019-03-30T11:25:08.529Z,32.20
2019-03-30T11:27:36.783Z,32.30
2019-03-30T11:30:06.194Z,32.70
2019-03-30T11:32:34.916Z,32.20
2019-03-30T11:35:04.086Z,33.00
2019-03-30T11:37:32.733Z,32.80
2019-03-30T11:40:01.531Z,32.50
2019-03-30T11:42:30.204Z,32.60
2019-03-30T11:44:58.918Z,31.50
2019-03-30T11:47:27.576Z,31.80
2019-03-30T11:49:56.190Z,32.40
2019-03-30T11:52:24.804Z,31.40
2019-03-30T11:54:53.462Z,31.80
2019-03-30T11:57:22.071Z,31.70
2019-03-30T11:59:50.626Z,31.90
2019-03-30T12:02:27.767Z,32.30
2019-03-30T12:04:49.818Z,32.50
2019-03-30T12:07:18.496Z,32.60
2019-03-30T12:09:47.041Z,32.40
2019-03-30T12:12:15.602Z,32.80
2019-03-30T12:14:44.261Z,32.70
2019-03-30T12:17:12.924Z,32.60
2019-03-30T12:19:41.512Z,32.40
2019-03-30T12:22:10.175Z,32.60
2019-03-30T12:24:38.748Z,32.30
2019-03-30T12:27:07.340Z,32.20
2019-03-30T12:29:36.013Z,32.20
2019-03-30T12:32:04.610Z,32.50
2019-03-30T12:34:33.250Z,32.60
2019-03-30T12:37:01.888Z,32.60
2019-03-30T12:39:30.538Z,32.80
2019-03-30T12:41:59.232Z,32.30
2019-03-30T12:44:28.000Z,32.50
2019-03-30T12:46:56.665Z,32.50
2019-03-30T12:49:25.332Z,32.20
2019-03-30T12:51:53.956Z,31.10
2019-03-30T12:54:22.686Z,31.60
2019-03-30T12:56:51.308Z,32.10
2019-03-30T12:59:19.969Z,32.10
2019-03-30T13:01:48.647Z,31.60
2019-03-30T13:04:17.251Z,31.50
2019-03-30T13:06:46.116Z,31.60
2019-03-30T13:09:14.680Z,32.00
2019-03-30T13:11:43.630Z,31.90
2019-03-30T13:14:12.252Z,31.90
2019-03-30T13:16:40.875Z,31.30
2019-03-30T13:19:27.932Z,31.10
2019-03-30T13:21:56.581Z,30.80
2019-03-30T13:24:25.202Z,31.50
2019-03-30T13:26:53.989Z,31.30
2019-03-30T13:29:27.657Z,31.50
2019-03-30T13:31:56.391Z,31.70
2019-03-30T13:34:24.992Z,32.00
2019-03-30T13:36:53.611Z,32.00
2019-03-30T13:39:22.268Z,32.20
2019-03-30T13:41:51.126Z,31.60
2019-03-30T13:44:19.839Z,30.80
2019-03-30T13:46:48.772Z,30.40
2019-03-30T13:49:17.447Z,30.00
2019-03-30T13:51:46.128Z,29.80
2019-03-30T13:54:14.780Z,30.10
2019-03-30T13:56:43.457Z,30.40
2019-03-30T13:59:12.052Z,30.50
2019-03-30T14:01:40.691Z,30.10
2019-03-30T14:04:09.368Z,29.40
2019-03-30T14:06:38.093Z,29.90
2019-03-30T14:09:07.636Z,29.80
2019-03-30T14:11:36.294Z,29.90
2019-03-30T14:14:04.992Z,29.50
2019-03-30T14:16:33.655Z,29.30
2019-03-30T14:19:02.342Z,29.00
2019-03-30T14:21:30.961Z,29.30
2019-03-30T14:23:59.660Z,29.10
2019-03-30T14:26:31.706Z,29.30
2019-03-30T14:28:58.893Z,29.60
2019-03-30T14:31:27.579Z,29.70
2019-03-30T14:33:56.229Z,29.70
2019-03-30T14:36:24.902Z,29.60
2019-03-30T14:38:53.533Z,29.60
2019-03-30T14:41:22.168Z,29.80
2019-03-30T14:43:50.929Z,29.90
2019-03-30T14:46:19.655Z,28.90
2019-03-30T14:48:48.277Z,28.80
2019-03-30T14:51:17.176Z,29.10
2019-03-30T14:53:45.804Z,29.20
2019-03-30T14:56:14.406Z,28.10
2019-03-30T14:58:43.085Z,27.20
2019-03-30T15:01:11.720Z,27.50
2019-03-30T15:03:40.641Z,27.40
2019-03-30T15:06:09.326Z,27.20
2019-03-30T15:08:37.946Z,27.10
2019-03-30T15:11:08.891Z,26.70
2019-03-30T15:13:37.494Z,26.80
2019-03-30T15:16:06.116Z,26.60
2019-03-30T15:18:34.741Z,25.10
2019-03-30T15:21:03.384Z,25.40
2019-03-30T15:23:32.028Z,25.20
2019-03-30T15:26:00.682Z,25.50
2019-03-30T15:28:29.349Z,25.50
2019-03-30T15:30:58.107Z,25.90
2019-03-30T15:33:26.749Z,25.90
2019-03-30T15:35:55.401Z,25.10
2019-03-30T15:38:23.975Z,24.50
2019-03-30T15:40:55.553Z,24.70
2019-03-30T15:43:37.205Z,24.60
2019-03-30T15:45:53.684Z,24.40
2019-03-30T15:48:22.259Z,23.80
2019-03-30T15:50:50.959Z,24.20
2019-03-30T15:53:19.548Z,24.40
2019-03-30T15:55:48.149Z,24.50
2019-03-30T15:58:16.754Z,24.30
2019-03-30T16:00:45.361Z,24.30
2019-03-30T16:03:14.207Z,24.10
2019-03-30T16:05:42.799Z,23.50
2019-03-30T16:08:11.449Z,23.40
2019-03-30T16:10:40.044Z,23.10
2019-03-30T16:13:08.631Z,22.90
2019-03-30T16:15:37.252Z,23.10
2019-03-30T16:18:05.832Z,23.00
2019-03-30T16:20:34.594Z,22.40
2019-03-30T16:23:03.318Z,22.30
2019-03-30T16:25:31.911Z,22.20
2019-03-30T16:28:01.271Z,22.00
2019-03-30T16:30:30.455Z,21.80
2019-03-30T16:32:59.068Z,21.70
2019-03-30T16:35:27.675Z,21.40
2019-03-30T16:37:56.308Z,21.10
2019-03-30T16:40:25.017Z,20.90
2019-03-30T16:42:53.620Z,20.90
2019-03-30T16:45:22.197Z,20.40
2019-03-30T16:47:50.910Z,20.40
2019-03-30T16:50:19.779Z,20.20
2019-03-30T16:52:48.421Z,20.00
2019-03-30T16:55:16.977Z,19.70
2019-03-30T16:57:45.582Z,19.60
2019-03-30T17:00:14.270Z,19.10
2019-03-30T17:02:42.866Z,19.30
2019-03-30T17:05:11.773Z,19.20
2019-03-30T17:07:40.396Z,18.70
2019-03-30T17:10:10.519Z,18.90
2019-03-30T17:12:39.120Z,18.80
2019-03-30T17:15:08.157Z,18.70
2019-03-30T17:17:36.816Z,18.60
2019-03-30T17:20:06.584Z,18.50
2019-03-30T17:22:35.200Z,18.30
2019-03-30T17:25:04.489Z,18.20
2019-03-30T17:27:33.132Z,18.10
2019-03-30T17:30:01.912Z,18.00
2019-03-30T17:32:30.567Z,17.80
2019-03-30T17:34:59.384Z,17.60
2019-03-30T17:40:07.515Z,17.60
2019-03-30T17:42:38.689Z,16.80
2019-03-30T17:45:07.237Z,16.90
2019-03-30T17:47:35.850Z,16.80
2019-03-30T17:50:05.410Z,16.60
2019-03-30T17:52:33.994Z,16.40
2019-03-30T17:55:02.743Z,16.20
2019-03-30T17:57:31.353Z,16.00
2019-03-30T17:59:59.997Z,15.80
2019-03-30T18:02:28.722Z,15.70
2019-03-30T18:04:57.295Z,15.50
2019-03-30T18:07:25.866Z,15.30
2019-03-30T18:09:54.467Z,15.10
2019-03-30T18:12:23.100Z,15.00
2019-03-30T18:14:51.689Z,14.90
2019-03-30T18:17:20.297Z,14.80
2019-03-30T18:19:48.915Z,14.60
2019-03-30T18:22:17.564Z,14.40
2019-03-30T18:24:46.132Z,14.40
2019-03-30T18:27:14.779Z,14.20
2019-03-30T18:29:43.346Z,14.10
2019-03-30T18:32:12.468Z,13.90
2019-03-30T18:34:41.338Z,13.80
2019-03-30T18:37:10.984Z,13.70
2019-03-30T18:39:39.962Z,13.70
2019-03-30T18:42:08.676Z,13.50
2019-03-30T18:44:37.480Z,13.40
2019-03-30T18:47:06.158Z,13.30
2019-03-30T18:49:34.783Z,13.30
2019-03-30T18:52:04.114Z,13.10
2019-03-30T18:54:34.411Z,13.10
2019-03-30T18:57:03.236Z,13.00
2019-03-30T18:59:31.827Z,12.50
2019-03-30T19:02:00.931Z,12.80
2019-03-30T19:04:29.545Z,12.20
2019-03-30T19:06:58.209Z,12.70
2019-03-30T19:09:26.808Z,12.70
2019-03-30T19:11:55.426Z,12.60
2019-03-30T19:14:24.287Z,12.50
2019-03-30T19:16:54.376Z,12.20
2019-03-30T19:19:25.549Z,12.20
2019-03-30T19:21:56.341Z,12.10
2019-03-30T19:24:24.959Z,11.40
2019-03-30T19:26:53.912Z,11.90
2019-03-30T19:29:24.165Z,11.90
2019-03-30T19:31:52.793Z,11.80
2019-03-30T19:34:24.480Z,11.60
2019-03-30T19:36:53.766Z,11.60
2019-03-30T19:39:22.576Z,11.50
2019-03-30T19:41:51.171Z,11.20
2019-03-30T19:44:19.992Z,11.40
2019-03-30T19:46:49.203Z,11.30
2019-03-30T19:49:18.331Z,11.10
2019-03-30T19:51:46.941Z,11.20
2019-03-30T19:54:16.140Z,11.00
2019-03-30T19:56:44.820Z,11.00
2019-03-30T19:59:14.073Z,10.90
2019-03-30T20:01:44.907Z,10.80
2019-03-30T20:04:13.526Z,10.80
2019-03-30T20:06:42.265Z,10.70
2019-03-30T20:09:10.985Z,10.50
2019-03-30T20:11:39.632Z,10.60
2019-03-30T20:14:08.251Z,10.50
2019-03-30T20:16:36.927Z,10.50
2019-03-30T20:19:12.749Z,10.40
2019-03-30T20:21:36.215Z,10.30
2019-03-30T20:24:04.854Z,10.20
2019-03-30T20:26:33.467Z,10.20
2019-03-30T20:29:02.230Z,10.10
2019-03-30T20:31:30.826Z,10.00
2019-03-30T20:33:59.471Z,10.00
2019-03-30T20:36:28.099Z,10.00
2019-03-30T20:38:56.741Z,10.00
2019-03-30T20:41:25.308Z,10.00
2019-03-30T20:43:53.969Z,9.90
2019-03-30T20:46:22.788Z,9.90
2019-03-30T20:48:51.470Z,9.80
2019-03-30T20:51:20.070Z,9.80
2019-03-30T20:53:48.725Z,10.20
2019-03-30T20:56:17.341Z,9.80
2019-03-30T20:58:46.001Z,9.80
2019-03-30T21:01:14.614Z,9.90
2019-03-30T21:03:43.370Z,9.90
2019-03-30T21:06:12.003Z,9.90
2019-03-30T21:08:40.670Z,9.80
2019-03-30T21:11:09.628Z,9.70
2019-03-30T21:13:38.245Z,9.70
2019-03-30T21:16:07.041Z,9.60
2019-03-30T21:18:35.668Z,9.50
2019-03-30T21:21:04.346Z,9.40
2019-03-30T21:23:32.969Z,9.30
2019-03-30T21:26:01.636Z,9.30
2019-03-30T21:28:30.266Z,9.30
2019-03-30T21:30:59.060Z,9.30
2019-03-30T21:33:27.695Z,9.30
2019-03-30T21:35:56.293Z,9.30
2019-03-30T21:38:24.974Z,9.30
2019-03-30T21:40:53.578Z,9.10
2019-03-30T21:43:28.793Z,9.10
2019-03-30T21:45:57.417Z,9.00
2019-03-30T21:48:26.029Z,9.00
2019-03-30T21:50:54.726Z,9.00
2019-03-30T21:53:23.346Z,8.80
2019-03-30T21:55:51.926Z,8.80
2019-03-30T21:58:20.520Z,8.70
2019-03-30T22:00:54.386Z,8.60
2019-03-30T22:03:22.962Z,8.50
2019-03-30T22:05:51.577Z,8.40
2019-03-30T22:08:20.240Z,8.40
2019-03-30T22:10:49.096Z,8.40
2019-03-30T22:13:21.270Z,8.30
2019-03-30T22:15:49.121Z,8.20
2019-03-30T22:18:17.745Z,8.20
2019-03-30T22:20:46.386Z,8.10
2019-03-30T22:23:14.971Z,8.10
2019-03-30T22:25:43.610Z,8.10
2019-03-30T22:28:12.220Z,8.00
2019-03-30T22:30:41.155Z,8.00
2019-03-30T22:33:09.755Z,7.90
2019-03-30T22:35:38.708Z,7.90
2019-03-30T22:38:07.282Z,7.80
2019-03-30T22:40:41.682Z,7.80
2019-03-30T22:43:10.445Z,7.70
2019-03-30T22:45:39.036Z,7.70
2019-03-30T22:48:07.706Z,7.60
2019-03-30T22:50:36.347Z,7.60
2019-03-30T22:53:04.984Z,7.60
2019-03-30T22:55:33.770Z,7.60
2019-03-30T22:58:02.417Z,7.60
2019-03-30T23:00:55.266Z,7.60
2019-03-30T23:03:24.241Z,7.50
2019-03-30T23:05:52.827Z,7.90
2019-03-30T23:08:21.422Z,7.40
2019-03-30T23:10:50.167Z,7.30
2019-03-30T23:13:18.760Z,7.30
2019-03-30T23:15:47.354Z,7.20
2019-03-30T23:18:15.939Z,7.20
2019-03-30T23:20:44.742Z,7.70
2019-03-30T23:23:13.346Z,7.20
2019-03-30T23:25:42.002Z,7.20
2019-03-30T23:28:10.671Z,7.20
2019-03-30T23:30:53.188Z,7.10
2019-03-30T23:33:09.843Z,7.10
2019-03-30T23:35:38.491Z,7.00
2019-03-30T23:38:07.069Z,6.90
2019-03-30T23:40:35.958Z,6.90
2019-03-30T23:43:04.687Z,6.90
2019-03-30T23:45:33.306Z,6.90
2019-03-30T23:48:01.951Z,6.90
2019-03-30T23:50:30.932Z,6.80
2019-03-30T23:52:59.502Z,6.70
2019-03-30T23:55:28.124Z,6.70
2019-03-30T23:57:56.736Z,6.70
